Terminal Aerodrome Forecast
Issued by NWS

Home | Current Version | Previous Version | Text Only | Print | Product List | Glossary On
Versions: 1 2 3 4 5 6 7 8 9 10 11 12 13 14
000
FTUS42 KGSP 222334
TAFAND
TAF
KAND 222334Z 2300/2324 VRB03KT P6SM FEW250
     FM231400 05004KT P6SM FEW200
     FM231600 06005KT P6SM FEW050=

USA.gov is the U.S. government's official web portal to all federal, state and local government web resources and services.